createdAt,value
2023-04-09T00:01:30.230Z,6.80
2023-04-09T00:05:33.732Z,5.97
2023-04-09T00:09:37.105Z,7.65
2023-04-09T00:13:40.198Z,7.82
2023-04-09T00:17:45.360Z,7.47
2023-04-09T00:21:48.570Z,8.85
2023-04-09T00:25:52.350Z,8.50
2023-04-09T00:29:55.532Z,9.30
2023-04-09T00:34:00.828Z,9.40
2023-04-09T00:38:04.022Z,7.72
2023-04-09T00:42:07.251Z,8.43
2023-04-09T00:46:10.720Z,8.93
2023-04-09T00:50:15.372Z,9.38
2023-04-09T00:54:18.636Z,8.75
2023-04-09T00:58:23.055Z,9.60
2023-04-09T01:02:26.853Z,7.90
2023-04-09T01:06:40.688Z,7.10
2023-04-09T01:10:48.582Z,7.55
2023-04-09T01:14:58.853Z,8.98
2023-04-09T01:19:08.862Z,8.68
2023-04-09T01:23:20.369Z,7.78
2023-04-09T01:27:24.027Z,9.65
2023-04-09T01:31:31.313Z,7.82
2023-04-09T01:35:34.368Z,7.75
2023-04-09T01:39:39.251Z,6.97
2023-04-09T01:43:43.544Z,7.35
2023-04-09T01:47:49.270Z,8.98
2023-04-09T01:51:52.446Z,8.20
2023-04-09T01:55:57.316Z,7.80
2023-04-09T02:00:01.117Z,8.10
2023-04-09T02:04:11.426Z,7.65
2023-04-09T02:08:20.995Z,6.90
2023-04-09T02:12:26.643Z,7.43
2023-04-09T02:16:31.074Z,6.85
2023-04-09T02:20:35.896Z,8.02
2023-04-09T02:24:39.237Z,8.20
2023-04-09T02:28:42.656Z,7.20
2023-04-09T02:32:45.848Z,7.78
2023-04-09T02:36:52.395Z,6.72
2023-04-09T02:40:55.827Z,7.85
2023-04-09T02:44:59.042Z,7.63
2023-04-09T02:49:02.315Z,8.15
2023-04-09T02:53:07.404Z,7.57
2023-04-09T02:57:10.293Z,7.70
2023-04-09T03:01:14.182Z,7.30
2023-04-09T03:05:17.129Z,6.88
2023-04-09T03:09:22.103Z,7.85
2023-04-09T03:13:26.344Z,8.05
2023-04-09T03:17:32.703Z,8.10
2023-04-09T03:21:36.060Z,7.85
2023-04-09T03:25:41.220Z,7.18
2023-04-09T03:29:44.847Z,8.82
2023-04-09T03:33:48.138Z,7.13
2023-04-09T03:37:51.343Z,6.88
2023-04-09T03:41:58.697Z,8.85
2023-04-09T03:46:02.032Z,7.57
2023-04-09T03:50:05.670Z,6.97
2023-04-09T03:54:08.603Z,9.13
2023-04-09T03:58:13.644Z,8.63
2023-04-09T04:02:17.094Z,9.07
2023-04-09T04:06:21.188Z,8.73
2023-04-09T04:10:24.336Z,8.80
2023-04-09T04:14:29.503Z,9.60
2023-04-09T04:18:33.106Z,9.80
2023-04-09T04:22:36.803Z,8.93
2023-04-09T04:26:41.772Z,8.23
2023-04-09T04:30:47.173Z,8.60
2023-04-09T04:34:51.496Z,8.05
2023-04-09T04:38:55.073Z,9.40
2023-04-09T04:42:58.287Z,8.32
2023-04-09T04:47:03.076Z,9.43
2023-04-09T04:51:06.254Z,9.35
2023-04-09T04:55:10.522Z,8.90
2023-04-09T04:59:14.184Z,8.55
2023-04-09T05:03:19.062Z,7.90
2023-04-09T05:07:22.078Z,8.43
2023-04-09T05:11:26.479Z,8.57
2023-04-09T05:15:29.690Z,8.52
2023-04-09T05:19:35.059Z,9.18
2023-04-09T05:23:38.196Z,8.35
2023-04-09T05:27:42.204Z,8.25
2023-04-09T05:31:47.052Z,8.55
2023-04-09T05:35:51.700Z,7.20
2023-04-09T05:39:55.608Z,8.05
2023-04-09T05:44:00.817Z,10.05
2023-04-09T05:48:05.650Z,8.70
2023-04-09T05:52:10.537Z,9.02
2023-04-09T05:56:17.529Z,9.20
2023-04-09T06:00:22.060Z,9.20
2023-04-09T06:04:25.254Z,7.68
2023-04-09T06:08:30.542Z,8.65
2023-04-09T06:12:36.018Z,8.07
2023-04-09T06:16:42.035Z,8.40
2023-04-09T06:20:45.428Z,8.02
2023-04-09T06:24:50.546Z,9.73
2023-04-09T06:28:54.249Z,8.38
2023-04-09T06:32:57.576Z,8.23
2023-04-09T06:37:00.510Z,8.45
2023-04-09T06:41:09.654Z,8.02
2023-04-09T06:45:13.270Z,7.30
2023-04-09T06:49:16.610Z,9.90
2023-04-09T06:53:20.625Z,9.32
2023-04-09T06:57:25.633Z,8.52
2023-04-09T07:01:28.898Z,8.32
2023-04-09T07:05:32.616Z,10.75
2023-04-09T07:09:37.279Z,9.30
2023-04-09T07:13:42.319Z,8.10
2023-04-09T07:17:45.718Z,8.95
2023-04-09T07:21:48.981Z,8.45
2023-04-09T07:25:52.307Z,8.85
2023-04-09T07:29:58.622Z,8.73
2023-04-09T07:34:02.138Z,9.55
2023-04-09T07:38:05.571Z,8.32
2023-04-09T07:42:09.134Z,10.05
2023-04-09T07:46:20.439Z,9.05
2023-04-09T07:50:24.417Z,8.90
2023-04-09T07:54:28.665Z,9.70
2023-04-09T07:58:31.998Z,10.27
2023-04-09T08:02:36.834Z,9.50
2023-04-09T08:06:40.370Z,9.40
2023-04-09T08:10:44.082Z,10.68
2023-04-09T08:14:47.381Z,12.10
2023-04-09T08:18:54.059Z,9.30
2023-04-09T08:22:57.998Z,9.85
2023-04-09T08:27:02.757Z,10.00
2023-04-09T08:31:06.709Z,10.63
2023-04-09T08:35:13.569Z,9.63
2023-04-09T08:39:17.436Z,11.45
2023-04-09T08:43:26.991Z,11.00
2023-04-09T08:47:38.610Z,9.13
2023-04-09T08:51:47.951Z,10.73
2023-04-09T08:55:51.141Z,10.98
2023-04-09T08:59:54.806Z,10.20
2023-04-09T09:04:01.194Z,11.95
2023-04-09T09:08:06.658Z,9.40
2023-04-09T09:12:10.033Z,10.63
2023-04-09T09:16:16.545Z,11.55
2023-04-09T09:20:22.315Z,10.15
2023-04-09T09:24:27.040Z,10.00
2023-04-09T09:28:37.043Z,9.85
2023-04-09T09:32:40.807Z,9.93
2023-04-09T09:36:44.714Z,8.35
2023-04-09T09:40:53.335Z,8.85
2023-04-09T09:44:57.212Z,9.02
2023-04-09T09:49:02.329Z,7.85
2023-04-09T09:53:07.239Z,8.05
2023-04-09T09:57:14.566Z,8.82
2023-04-09T10:01:20.932Z,7.97
2023-04-09T10:05:27.929Z,8.52
2023-04-09T10:09:32.400Z,7.85
2023-04-09T10:13:41.003Z,8.05
2023-04-09T10:17:44.221Z,8.57
2023-04-09T10:21:55.380Z,7.55
2023-04-09T10:25:58.674Z,6.95
2023-04-09T10:30:06.146Z,6.97
2023-04-09T10:34:10.873Z,7.28
2023-04-09T10:38:16.626Z,6.65
2023-04-09T10:42:24.862Z,6.90
2023-04-09T10:46:31.238Z,6.13
2023-04-09T10:50:36.452Z,6.90
2023-04-09T10:54:48.571Z,7.35
2023-04-09T10:58:52.130Z,7.37
2023-04-09T11:03:25.437Z,7.00
2023-04-09T11:07:30.197Z,7.13
2023-04-09T11:11:35.293Z,8.20
2023-04-09T11:15:38.655Z,6.80
2023-04-09T11:19:44.079Z,7.78
2023-04-09T11:23:53.195Z,8.52
2023-04-09T11:27:56.989Z,7.85
2023-04-09T11:32:02.046Z,8.00
2023-04-09T11:36:08.491Z,7.28
2023-04-09T11:40:18.322Z,9.00
2023-04-09T11:44:23.112Z,7.45
2023-04-09T11:48:26.475Z,9.15
2023-04-09T11:52:32.676Z,8.13
2023-04-09T11:56:37.809Z,8.40
2023-04-09T12:00:42.711Z,8.38
2023-04-09T12:04:51.728Z,8.95
2023-04-09T12:08:58.823Z,8.55
2023-04-09T12:13:06.904Z,8.35
2023-04-09T12:17:10.458Z,8.02
2023-04-09T12:21:13.805Z,9.68
2023-04-09T12:25:18.783Z,8.98
2023-04-09T12:29:22.673Z,7.57
2023-04-09T12:33:26.262Z,8.02
2023-04-09T12:37:29.538Z,9.15
2023-04-09T12:41:34.667Z,7.75
2023-04-09T12:45:38.514Z,8.48
2023-04-09T12:49:45.285Z,7.88
2023-04-09T12:53:48.454Z,7.68
2023-04-09T12:57:53.506Z,8.40
2023-04-09T13:01:56.585Z,8.30
2023-04-09T13:05:59.792Z,8.85
2023-04-09T13:10:03.016Z,8.27
2023-04-09T13:14:07.792Z,7.70
2023-04-09T13:18:11.436Z,8.25
2023-04-09T13:22:15.013Z,8.07
2023-04-09T13:26:18.036Z,7.18
2023-04-09T13:30:23.470Z,9.50
2023-04-09T13:34:27.052Z,8.77
2023-04-09T13:38:30.676Z,8.10
2023-04-09T13:42:35.248Z,9.05
2023-04-09T13:46:40.248Z,8.35
2023-04-09T13:50:43.574Z,8.23
2023-04-09T13:54:47.077Z,8.32
2023-04-09T13:58:50.445Z,8.95
2023-04-09T14:02:55.404Z,9.57
2023-04-09T14:06:59.322Z,8.18
2023-04-09T14:11:03.108Z,8.85
2023-04-09T14:15:07.609Z,9.95
2023-04-09T14:19:12.700Z,8.40
2023-04-09T14:23:16.369Z,8.75
2023-04-09T14:27:20.029Z,7.28
2023-04-09T14:31:23.410Z,7.63
2023-04-09T14:35:28.646Z,7.50
2023-04-09T14:39:31.971Z,8.45
2023-04-09T14:43:35.563Z,8.38
2023-04-09T14:47:38.556Z,6.75
2023-04-09T14:51:43.414Z,6.47
2023-04-09T14:55:46.308Z,7.18
2023-04-09T14:59:49.526Z,6.32
2023-04-09T15:03:52.861Z,6.43
2023-04-09T15:07:59.008Z,6.55
2023-04-09T15:12:03.504Z,7.30
2023-04-09T15:16:07.992Z,6.45
2023-04-09T15:20:12.157Z,6.95
2023-04-09T15:24:17.210Z,7.13
2023-04-09T15:28:20.551Z,6.70
2023-04-09T15:32:24.063Z,6.78
2023-04-09T15:40:32.345Z,5.05
2023-04-09T15:44:36.303Z,6.00
2023-04-09T15:48:40.102Z,6.85
2023-04-09T15:52:43.332Z,6.55
2023-04-09T15:56:48.061Z,5.95
2023-04-09T16:00:52.030Z,6.90
2023-04-09T16:04:55.486Z,8.15
2023-04-09T16:08:58.895Z,7.70
2023-04-09T16:13:04.666Z,6.60
2023-04-09T16:17:08.547Z,6.32
2023-04-09T16:21:12.180Z,6.60
2023-04-09T16:25:15.494Z,6.93
2023-04-09T16:29:19.850Z,6.45
2023-04-09T16:33:22.916Z,7.35
2023-04-09T16:37:26.923Z,6.70
2023-04-09T16:41:30.058Z,7.32
2023-04-09T16:45:34.905Z,9.52
2023-04-09T16:49:38.274Z,8.52
2023-04-09T16:53:41.712Z,8.18
2023-04-09T16:57:45.009Z,8.30
2023-04-09T17:01:50.470Z,8.77
2023-04-09T17:05:53.926Z,8.48
2023-04-09T17:09:57.694Z,7.25
2023-04-09T17:14:00.928Z,9.10
2023-04-09T17:18:06.038Z,7.85
2023-04-09T17:22:09.711Z,8.18
2023-04-09T17:26:13.251Z,9.68
2023-04-09T17:30:16.592Z,8.93
2023-04-09T17:34:21.622Z,8.43
2023-04-09T17:38:27.189Z,7.22
2023-04-09T17:42:30.703Z,9.70
2023-04-09T17:46:33.565Z,10.38
2023-04-09T17:50:40.644Z,8.13
2023-04-09T17:54:45.486Z,9.52
2023-04-09T17:58:49.244Z,8.77
2023-04-09T18:02:54.315Z,8.20
2023-04-09T18:06:59.277Z,8.13
2023-04-09T18:11:12.914Z,8.20
2023-04-09T18:15:17.284Z,8.90
2023-04-09T18:19:20.214Z,7.82
2023-04-09T18:23:24.837Z,8.50
2023-04-09T18:27:27.854Z,8.38
2023-04-09T18:31:31.502Z,9.48
2023-04-09T18:35:36.506Z,9.05
2023-04-09T18:39:41.831Z,10.70
2023-04-09T18:43:44.769Z,9.57
2023-04-09T18:47:48.321Z,9.90
2023-04-09T18:51:51.860Z,9.70
2023-04-09T18:55:57.382Z,10.45
2023-04-09T19:00:00.578Z,7.45
2023-04-09T19:04:03.752Z,9.00
2023-04-09T19:08:08.020Z,9.38
2023-04-09T19:12:12.958Z,8.95
2023-04-09T19:16:16.398Z,9.85
2023-04-09T19:20:20.228Z,9.18
2023-04-09T19:24:23.676Z,10.50
2023-04-09T19:28:28.482Z,8.98
2023-04-09T19:32:31.814Z,9.88
2023-04-09T19:36:35.753Z,9.27
2023-04-09T19:40:38.820Z,8.27
2023-04-09T19:44:46.148Z,9.13
2023-04-09T19:48:49.748Z,9.15
2023-04-09T19:52:56.342Z,7.40
2023-04-09T19:57:00.193Z,7.38
2023-04-09T20:01:05.179Z,9.23
2023-04-09T20:05:10.071Z,7.30
2023-04-09T20:09:13.708Z,7.68
2023-04-09T20:13:17.085Z,7.30
2023-04-09T20:17:21.886Z,7.40
2023-04-09T20:21:24.934Z,6.68
2023-04-09T20:25:34.986Z,8.15
2023-04-09T20:29:38.597Z,8.32
2023-04-09T20:33:43.542Z,7.80
2023-04-09T20:37:48.466Z,7.13
2023-04-09T20:41:51.877Z,8.98
2023-04-09T20:45:55.068Z,7.88
2023-04-09T20:50:00.359Z,7.88
2023-04-09T20:54:04.237Z,7.95
2023-04-09T20:58:08.654Z,7.60
2023-04-09T21:02:14.385Z,6.50
2023-04-09T21:06:19.269Z,6.38
2023-04-09T21:10:22.505Z,6.80
2023-04-09T21:14:25.992Z,7.32
2023-04-09T21:18:29.102Z,6.13
2023-04-09T21:22:37.919Z,7.32
2023-04-09T21:26:51.170Z,6.65
2023-04-09T21:30:55.766Z,6.75
2023-04-09T21:34:59.331Z,6.90
2023-04-09T21:39:05.022Z,7.88
2023-04-09T21:43:09.670Z,7.88
2023-04-09T21:47:13.606Z,6.82
2023-04-09T21:51:16.662Z,7.45
2023-04-09T21:55:21.357Z,6.93
2023-04-09T21:59:24.686Z,8.10
2023-04-09T22:03:28.411Z,7.45
2023-04-09T22:07:31.721Z,7.35
2023-04-09T22:11:36.367Z,7.13
2023-04-09T22:15:39.913Z,7.97
2023-04-09T22:19:43.918Z,7.55
2023-04-09T22:23:47.388Z,7.55
2023-04-09T22:27:55.378Z,5.97
2023-04-09T22:31:58.664Z,7.00
2023-04-09T22:36:02.240Z,7.25
2023-04-09T22:40:10.028Z,7.30
2023-04-09T22:44:15.173Z,6.35
2023-04-09T22:48:18.322Z,4.95
2023-04-09T22:52:22.044Z,7.13
2023-04-09T22:56:25.617Z,7.65
2023-04-09T23:00:30.849Z,7.22
2023-04-09T23:04:35.038Z,6.65
2023-04-09T23:08:40.639Z,7.10
2023-04-09T23:12:44.632Z,6.68
2023-04-09T23:16:50.215Z,7.97
2023-04-09T23:20:53.453Z,8.65
2023-04-09T23:24:57.129Z,7.80
2023-04-09T23:29:00.526Z,6.18
2023-04-09T23:33:05.706Z,7.45
2023-04-09T23:37:09.753Z,7.88
2023-04-09T23:41:14.119Z,7.85
2023-04-09T23:45:17.072Z,7.13
2023-04-09T23:49:22.070Z,8.23
2023-04-09T23:53:25.166Z,7.65
2023-04-09T23:57:29.183Z,6.82
